sensor_id;sensor_type;location;lat;lon;timestamp;temperature;humidity
60039;DHT22;45916;52.734;6.544;2022-07-23T00:00:33;13.80;99.90
60039;DHT22;45916;52.734;6.544;2022-07-23T00:02:59;13.70;99.90
60039;DHT22;45916;52.734;6.544;2022-07-23T00:05:25;13.60;99.90
60039;DHT22;45916;52.734;6.544;2022-07-23T00:07:50;13.60;99.90
60039;DHT22;45916;52.734;6.544;2022-07-23T00:10:16;13.50;99.90
60039;DHT22;45916;52.734;6.544;2022-07-23T00:12:42;13.40;99.90
60039;DHT22;45916;52.734;6.544;2022-07-23T00:15:08;13.30;99.90
60039;DHT22;45916;52.734;6.544;2022-07-23T00:17:34;13.20;99.90
60039;DHT22;45916;52.734;6.544;2022-07-23T00:20:00;13.20;99.90
60039;DHT22;45916;52.734;6.544;2022-07-23T00:22:26;13.10;99.90
60039;DHT22;45916;52.734;6.544;2022-07-23T00:24:53;13.00;99.90
60039;DHT22;45916;52.734;6.544;2022-07-23T00:27:18;12.90;99.90
60039;DHT22;45916;52.734;6.544;2022-07-23T00:29:44;12.90;99.90
60039;DHT22;45916;52.734;6.544;2022-07-23T00:32:10;12.80;99.90
60039;DHT22;45916;52.734;6.544;2022-07-23T00:34:35;12.80;99.90
60039;DHT22;45916;52.734;6.544;2022-07-23T00:37:01;12.70;99.90
60039;DHT22;45916;52.734;6.544;2022-07-23T00:39:27;12.70;99.90
60039;DHT22;45916;52.734;6.544;2022-07-23T00:41:52;12.70;99.90
60039;DHT22;45916;52.734;6.544;2022-07-23T00:44:23;12.70;99.90
60039;DHT22;45916;52.734;6.544;2022-07-23T00:46:55;12.70;99.90
60039;DHT22;45916;52.734;6.544;2022-07-23T00:49:27;12.70;99.90
60039;DHT22;45916;52.734;6.544;2022-07-23T00:51:54;12.70;99.90
60039;DHT22;45916;52.734;6.544;2022-07-23T00:54:22;12.70;99.90
60039;DHT22;45916;52.734;6.544;2022-07-23T00:56:48;12.60;99.90
60039;DHT22;45916;52.734;6.544;2022-07-23T00:59:14;12.60;99.90
60039;DHT22;45916;52.734;6.544;2022-07-23T01:01:40;12.50;99.90
60039;DHT22;45916;52.734;6.544;2022-07-23T01:04:06;12.50;99.90
60039;DHT22;45916;52.734;6.544;2022-07-23T01:06:37;12.50;99.90
60039;DHT22;45916;52.734;6.544;2022-07-23T01:09:05;12.40;99.90
60039;DHT22;45916;52.734;6.544;2022-07-23T01:11:33;12.40;99.90
60039;DHT22;45916;52.734;6.544;2022-07-23T01:13:59;12.30;99.90
60039;DHT22;45916;52.734;6.544;2022-07-23T01:16:32;12.20;99.90
60039;DHT22;45916;52.734;6.544;2022-07-23T01:18:58;12.10;99.90
60039;DHT22;45916;52.734;6.544;2022-07-23T01:21:24;12.10;99.90
60039;DHT22;45916;52.734;6.544;2022-07-23T01:23:50;12.00;99.90
60039;DHT22;45916;52.734;6.544;2022-07-23T01:26:15;11.90;99.90
60039;DHT22;45916;52.734;6.544;2022-07-23T01:28:42;11.90;99.90
60039;DHT22;45916;52.734;6.544;2022-07-23T01:31:08;11.90;99.90
60039;DHT22;45916;52.734;6.544;2022-07-23T01:33:34;11.90;99.90
60039;DHT22;45916;52.734;6.544;2022-07-23T01:35:59;11.80;99.90
60039;DHT22;45916;52.734;6.544;2022-07-23T01:38:25;11.80;99.90
60039;DHT22;45916;52.734;6.544;2022-07-23T01:40:51;11.80;99.90
60039;DHT22;45916;52.734;6.544;2022-07-23T01:43:16;11.80;99.90
60039;DHT22;45916;52.734;6.544;2022-07-23T01:45:42;11.70;99.90
60039;DHT22;45916;52.734;6.544;2022-07-23T01:48:09;11.60;99.90
60039;DHT22;45916;52.734;6.544;2022-07-23T01:50:35;11.60;99.90
60039;DHT22;45916;52.734;6.544;2022-07-23T01:53:01;11.50;99.90
60039;DHT22;45916;52.734;6.544;2022-07-23T01:55:29;11.50;99.90
60039;DHT22;45916;52.734;6.544;2022-07-23T01:57:55;11.40;99.90
60039;DHT22;45916;52.734;6.544;2022-07-23T02:00:20;11.40;99.90
60039;DHT22;45916;52.734;6.544;2022-07-23T02:02:46;11.40;99.90
60039;DHT22;45916;52.734;6.544;2022-07-23T02:05:12;11.30;99.90
60039;DHT22;45916;52.734;6.544;2022-07-23T02:07:38;11.30;99.90
60039;DHT22;45916;52.734;6.544;2022-07-23T02:10:04;11.20;99.90
60039;DHT22;45916;52.734;6.544;2022-07-23T02:12:29;11.20;99.90
60039;DHT22;45916;52.734;6.544;2022-07-23T02:14:55;11.20;99.90
60039;DHT22;45916;52.734;6.544;2022-07-23T02:17:21;11.10;99.90
60039;DHT22;45916;52.734;6.544;2022-07-23T02:19:46;11.00;99.90
60039;DHT22;45916;52.734;6.544;2022-07-23T02:22:12;11.00;99.90
60039;DHT22;45916;52.734;6.544;2022-07-23T02:24:37;11.00;99.90
60039;DHT22;45916;52.734;6.544;2022-07-23T02:27:03;11.00;99.90
60039;DHT22;45916;52.734;6.544;2022-07-23T02:29:29;11.00;99.90
60039;DHT22;45916;52.734;6.544;2022-07-23T02:31:54;11.00;99.90
60039;DHT22;45916;52.734;6.544;2022-07-23T02:34:20;10.90;99.90
60039;DHT22;45916;52.734;6.544;2022-07-23T02:36:46;11.00;99.90
60039;DHT22;45916;52.734;6.544;2022-07-23T02:39:11;11.00;99.90
60039;DHT22;45916;52.734;6.544;2022-07-23T02:41:37;10.90;99.90
60039;DHT22;45916;52.734;6.544;2022-07-23T02:44:03;10.90;99.90
60039;DHT22;45916;52.734;6.544;2022-07-23T02:46:29;10.90;99.90
60039;DHT22;45916;52.734;6.544;2022-07-23T02:48:54;10.80;99.90
60039;DHT22;45916;52.734;6.544;2022-07-23T02:51:20;10.70;99.90
60039;DHT22;45916;52.734;6.544;2022-07-23T02:53:46;10.70;99.90
60039;DHT22;45916;52.734;6.544;2022-07-23T02:56:11;10.70;99.90
60039;DHT22;45916;52.734;6.544;2022-07-23T02:58:37;10.70;99.90
60039;DHT22;45916;52.734;6.544;2022-07-23T03:01:03;10.70;99.90
60039;DHT22;45916;52.734;6.544;2022-07-23T03:03:28;10.60;99.90
60039;DHT22;45916;52.734;6.544;2022-07-23T03:05:54;10.60;99.90
60039;DHT22;45916;52.734;6.544;2022-07-23T03:08:20;10.60;99.90
60039;DHT22;45916;52.734;6.544;2022-07-23T03:10:46;10.60;99.90
60039;DHT22;45916;52.734;6.544;2022-07-23T03:13:11;10.60;99.90
60039;DHT22;45916;52.734;6.544;2022-07-23T03:15:37;10.50;99.90
60039;DHT22;45916;52.734;6.544;2022-07-23T03:18:03;10.50;99.90
60039;DHT22;45916;52.734;6.544;2022-07-23T03:20:28;10.50;99.90
60039;DHT22;45916;52.734;6.544;2022-07-23T03:22:54;10.40;99.90
60039;DHT22;45916;52.734;6.544;2022-07-23T03:25:20;10.40;99.90
60039;DHT22;45916;52.734;6.544;2022-07-23T03:27:45;10.40;99.90
60039;DHT22;45916;52.734;6.544;2022-07-23T03:30:11;10.50;99.90
60039;DHT22;45916;52.734;6.544;2022-07-23T03:32:37;10.40;99.90
60039;DHT22;45916;52.734;6.544;2022-07-23T03:35:03;10.40;99.90
60039;DHT22;45916;52.734;6.544;2022-07-23T03:37:29;10.30;99.90
60039;DHT22;45916;52.734;6.544;2022-07-23T03:39:55;10.40;99.90
60039;DHT22;45916;52.734;6.544;2022-07-23T03:42:20;10.40;99.90
60039;DHT22;45916;52.734;6.544;2022-07-23T03:44:46;10.30;99.90
60039;DHT22;45916;52.734;6.544;2022-07-23T03:47:12;10.40;99.90
60039;DHT22;45916;52.734;6.544;2022-07-23T03:49:38;10.40;99.90
60039;DHT22;45916;52.734;6.544;2022-07-23T03:52:04;10.40;99.90
60039;DHT22;45916;52.734;6.544;2022-07-23T03:54:29;10.30;99.90
60039;DHT22;45916;52.734;6.544;2022-07-23T03:56:55;10.30;99.90
60039;DHT22;45916;52.734;6.544;2022-07-23T03:59:21;10.30;99.90
60039;DHT22;45916;52.734;6.544;2022-07-23T04:01:47;10.30;99.90
60039;DHT22;45916;52.734;6.544;2022-07-23T04:04:13;10.30;99.90
60039;DHT22;45916;52.734;6.544;2022-07-23T04:06:38;10.30;99.90
60039;DHT22;45916;52.734;6.544;2022-07-23T04:09:04;10.30;99.90
60039;DHT22;45916;52.734;6.544;2022-07-23T04:11:30;10.40;99.90
60039;DHT22;45916;52.734;6.544;2022-07-23T04:13:55;10.40;99.90
60039;DHT22;45916;52.734;6.544;2022-07-23T04:16:21;10.40;99.90
60039;DHT22;45916;52.734;6.544;2022-07-23T04:18:47;10.50;99.90
60039;DHT22;45916;52.734;6.544;2022-07-23T04:21:12;10.60;99.90
60039;DHT22;45916;52.734;6.544;2022-07-23T04:23:38;10.70;99.90
60039;DHT22;45916;52.734;6.544;2022-07-23T04:26:04;10.70;99.90
60039;DHT22;45916;52.734;6.544;2022-07-23T04:28:29;10.70;99.90
60039;DHT22;45916;52.734;6.544;2022-07-23T04:30:59;10.70;99.90
60039;DHT22;45916;52.734;6.544;2022-07-23T04:33:24;10.80;99.90
60039;DHT22;45916;52.734;6.544;2022-07-23T04:35:50;10.90;99.90
60039;DHT22;45916;52.734;6.544;2022-07-23T04:38:16;10.90;99.90
60039;DHT22;45916;52.734;6.544;2022-07-23T04:40:42;11.10;99.90
60039;DHT22;45916;52.734;6.544;2022-07-23T04:43:07;11.20;99.90
60039;DHT22;45916;52.734;6.544;2022-07-23T04:45:33;11.30;99.90
60039;DHT22;45916;52.734;6.544;2022-07-23T04:47:58;11.50;99.90
60039;DHT22;45916;52.734;6.544;2022-07-23T04:50:24;11.60;99.90
60039;DHT22;45916;52.734;6.544;2022-07-23T04:52:50;11.70;99.90
60039;DHT22;45916;52.734;6.544;2022-07-23T04:55:16;11.80;99.90
60039;DHT22;45916;52.734;6.544;2022-07-23T04:57:41;11.90;99.90
60039;DHT22;45916;52.734;6.544;2022-07-23T05:00:08;12.00;99.90
60039;DHT22;45916;52.734;6.544;2022-07-23T05:02:34;12.20;99.90
60039;DHT22;45916;52.734;6.544;2022-07-23T05:05:00;12.40;99.90
60039;DHT22;45916;52.734;6.544;2022-07-23T05:07:25;12.60;99.90
60039;DHT22;45916;52.734;6.544;2022-07-23T05:09:51;13.40;99.90
60039;DHT22;45916;52.734;6.544;2022-07-23T05:12:16;14.60;99.90
60039;DHT22;45916;52.734;6.544;2022-07-23T05:14:42;15.90;99.90
60039;DHT22;45916;52.734;6.544;2022-07-23T05:17:08;17.50;99.90
60039;DHT22;45916;52.734;6.544;2022-07-23T05:19:34;19.10;99.90
60039;DHT22;45916;52.734;6.544;2022-07-23T05:22:00;20.50;99.90
60039;DHT22;45916;52.734;6.544;2022-07-23T05:24:26;21.90;99.90
60039;DHT22;45916;52.734;6.544;2022-07-23T05:26:52;23.00;99.90
60039;DHT22;45916;52.734;6.544;2022-07-23T05:29:18;23.90;99.90
60039;DHT22;45916;52.734;6.544;2022-07-23T05:31:43;24.80;99.40
60039;DHT22;45916;52.734;6.544;2022-07-23T05:34:09;25.70;95.70
60039;DHT22;45916;52.734;6.544;2022-07-23T05:36:35;26.40;91.40
60039;DHT22;45916;52.734;6.544;2022-07-23T05:39:01;27.40;85.40
60039;DHT22;45916;52.734;6.544;2022-07-23T05:41:26;28.30;80.10
60039;DHT22;45916;52.734;6.544;2022-07-23T05:43:52;29.10;70.40
60039;DHT22;45916;52.734;6.544;2022-07-23T05:46:18;29.70;62.90
60039;DHT22;45916;52.734;6.544;2022-07-23T05:48:43;30.30;62.80
60039;DHT22;45916;52.734;6.544;2022-07-23T05:51:11;30.80;57.90
60039;DHT22;45916;52.734;6.544;2022-07-23T05:53:37;31.50;56.00
60039;DHT22;45916;52.734;6.544;2022-07-23T05:56:04;32.20;54.10
60039;DHT22;45916;52.734;6.544;2022-07-23T05:58:29;32.90;51.40
60039;DHT22;45916;52.734;6.544;2022-07-23T06:00:55;33.50;50.00
60039;DHT22;45916;52.734;6.544;2022-07-23T06:03:21;33.90;48.00
60039;DHT22;45916;52.734;6.544;2022-07-23T06:05:47;34.20;47.80
60039;DHT22;45916;52.734;6.544;2022-07-23T06:08:12;34.60;47.20
60039;DHT22;45916;52.734;6.544;2022-07-23T06:10:38;34.90;45.50
60039;DHT22;45916;52.734;6.544;2022-07-23T06:13:04;35.20;44.20
60039;DHT22;45916;52.734;6.544;2022-07-23T06:15:32;35.50;43.00
60039;DHT22;45916;52.734;6.544;2022-07-23T06:17:58;35.60;43.10
60039;DHT22;45916;52.734;6.544;2022-07-23T06:20:24;35.60;42.80
60039;DHT22;45916;52.734;6.544;2022-07-23T06:22:49;36.10;41.60
60039;DHT22;45916;52.734;6.544;2022-07-23T06:25:15;36.40;39.70
60039;DHT22;45916;52.734;6.544;2022-07-23T06:27:42;36.50;41.30
60039;DHT22;45916;52.734;6.544;2022-07-23T06:30:08;36.50;40.90
60039;DHT22;45916;52.734;6.544;2022-07-23T06:32:34;37.00;40.90
60039;DHT22;45916;52.734;6.544;2022-07-23T06:34:59;37.40;39.60
60039;DHT22;45916;52.734;6.544;2022-07-23T06:37:25;37.80;39.20
60039;DHT22;45916;52.734;6.544;2022-07-23T06:39:51;38.40;38.00
60039;DHT22;45916;52.734;6.544;2022-07-23T06:42:16;38.80;36.80
60039;DHT22;45916;52.734;6.544;2022-07-23T06:44:42;38.90;36.60
60039;DHT22;45916;52.734;6.544;2022-07-23T06:47:08;38.60;36.70
60039;DHT22;45916;52.734;6.544;2022-07-23T06:49:33;38.60;37.30
60039;DHT22;45916;52.734;6.544;2022-07-23T06:51:59;39.00;37.30
60039;DHT22;45916;52.734;6.544;2022-07-23T06:54:25;39.40;35.90
60039;DHT22;45916;52.734;6.544;2022-07-23T06:56:50;39.60;35.00
60039;DHT22;45916;52.734;6.544;2022-07-23T06:59:16;39.20;35.30
60039;DHT22;45916;52.734;6.544;2022-07-23T07:01:42;38.70;36.80
60039;DHT22;45916;52.734;6.544;2022-07-23T07:04:08;38.60;36.50
60039;DHT22;45916;52.734;6.544;2022-07-23T07:06:34;38.90;36.30
60039;DHT22;45916;52.734;6.544;2022-07-23T07:08:59;39.10;36.20
60039;DHT22;45916;52.734;6.544;2022-07-23T07:11:25;39.90;36.00
60039;DHT22;45916;52.734;6.544;2022-07-23T07:13:51;41.00;34.10
60039;DHT22;45916;52.734;6.544;2022-07-23T07:16:17;41.60;33.70
60039;DHT22;45916;52.734;6.544;2022-07-23T07:18:43;41.90;32.30
60039;DHT22;45916;52.734;6.544;2022-07-23T07:21:08;41.80;32.30
60039;DHT22;45916;52.734;6.544;2022-07-23T07:23:34;41.70;33.10
60039;DHT22;45916;52.734;6.544;2022-07-23T07:26:00;41.80;32.80
60039;DHT22;45916;52.734;6.544;2022-07-23T07:28:25;42.10;32.30
60039;DHT22;45916;52.734;6.544;2022-07-23T07:30:51;42.30;31.70
60039;DHT22;45916;52.734;6.544;2022-07-23T07:33:17;42.60;31.70
60039;DHT22;45916;52.734;6.544;2022-07-23T07:35:42;42.80;31.40
60039;DHT22;45916;52.734;6.544;2022-07-23T07:38:08;43.10;30.70
60039;DHT22;45916;52.734;6.544;2022-07-23T07:40:34;43.20;30.40
60039;DHT22;45916;52.734;6.544;2022-07-23T07:43:00;43.00;30.20
60039;DHT22;45916;52.734;6.544;2022-07-23T07:45:27;43.00;30.40
60039;DHT22;45916;52.734;6.544;2022-07-23T07:48:01;43.20;30.50
60039;DHT22;45916;52.734;6.544;2022-07-23T07:50:27;42.90;29.50
60039;DHT22;45916;52.734;6.544;2022-07-23T07:52:53;42.30;30.60
60039;DHT22;45916;52.734;6.544;2022-07-23T07:55:19;42.30;30.90
60039;DHT22;45916;52.734;6.544;2022-07-23T07:57:44;42.60;30.70
60039;DHT22;45916;52.734;6.544;2022-07-23T08:00:11;42.70;31.00
60039;DHT22;45916;52.734;6.544;2022-07-23T08:05:06;40.20;31.50
60039;DHT22;45916;52.734;6.544;2022-07-23T08:07:31;39.10;32.00
60039;DHT22;45916;52.734;6.544;2022-07-23T08:09:57;37.50;33.30
60039;DHT22;45916;52.734;6.544;2022-07-23T08:12:23;36.60;35.90
60039;DHT22;45916;52.734;6.544;2022-07-23T08:14:48;37.10;34.60
60039;DHT22;45916;52.734;6.544;2022-07-23T08:17:14;36.50;34.80
60039;DHT22;45916;52.734;6.544;2022-07-23T08:19:40;34.90;35.90
60039;DHT22;45916;52.734;6.544;2022-07-23T08:22:05;33.30;37.90
60039;DHT22;45916;52.734;6.544;2022-07-23T08:24:31;33.20;41.40
60039;DHT22;45916;52.734;6.544;2022-07-23T08:26:57;35.10;40.30
60039;DHT22;45916;52.734;6.544;2022-07-23T08:29:22;36.40;37.50
60039;DHT22;45916;52.734;6.544;2022-07-23T08:31:48;35.90;35.70
60039;DHT22;45916;52.734;6.544;2022-07-23T08:34:13;35.00;36.30
60039;DHT22;45916;52.734;6.544;2022-07-23T08:36:39;33.70;37.20
60039;DHT22;45916;52.734;6.544;2022-07-23T08:39:05;32.50;39.10
60039;DHT22;45916;52.734;6.544;2022-07-23T08:41:30;31.30;40.40
60039;DHT22;45916;52.734;6.544;2022-07-23T08:43:56;31.40;42.80
60039;DHT22;45916;52.734;6.544;2022-07-23T08:46:24;33.10;42.30
60039;DHT22;45916;52.734;6.544;2022-07-23T08:48:50;34.80;39.40
60039;DHT22;45916;52.734;6.544;2022-07-23T08:51:16;35.50;37.20
60039;DHT22;45916;52.734;6.544;2022-07-23T08:53:42;35.60;36.60
60039;DHT22;45916;52.734;6.544;2022-07-23T08:56:09;35.10;36.80
60039;DHT22;45916;52.734;6.544;2022-07-23T08:58:35;34.20;37.30
60039;DHT22;45916;52.734;6.544;2022-07-23T09:01:02;33.20;38.10
60039;DHT22;45916;52.734;6.544;2022-07-23T09:03:33;32.10;39.90
60039;DHT22;45916;52.734;6.544;2022-07-23T09:06:00;32.30;42.70
60039;DHT22;45916;52.734;6.544;2022-07-23T09:08:38;34.40;41.60
60039;DHT22;45916;52.734;6.544;2022-07-23T09:11:06;35.40;38.40
60039;DHT22;45916;52.734;6.544;2022-07-23T09:18:58;33.80;38.20
60039;DHT22;45916;52.734;6.544;2022-07-23T09:24:04;33.70;42.40
60039;DHT22;45916;52.734;6.544;2022-07-23T09:26:40;34.50;38.40
60039;DHT22;45916;52.734;6.544;2022-07-23T09:29:13;33.70;38.30
60039;DHT22;45916;52.734;6.544;2022-07-23T09:31:54;32.30;40.40
60039;DHT22;45916;52.734;6.544;2022-07-23T09:34:33;30.90;42.00
60039;DHT22;45916;52.734;6.544;2022-07-23T09:37:18;29.40;43.90
60039;DHT22;45916;52.734;6.544;2022-07-23T09:39:45;28.50;46.70
60039;DHT22;45916;52.734;6.544;2022-07-23T09:42:18;30.00;48.90
60039;DHT22;45916;52.734;6.544;2022-07-23T09:44:52;32.10;45.50
60039;DHT22;45916;52.734;6.544;2022-07-23T09:47:19;34.20;41.90
60039;DHT22;45916;52.734;6.544;2022-07-23T09:52:32;37.60;36.60
60039;DHT22;45916;52.734;6.544;2022-07-23T09:55:03;39.00;35.60
60039;DHT22;45916;52.734;6.544;2022-07-23T09:57:29;39.50;35.30
60039;DHT22;45916;52.734;6.544;2022-07-23T10:00:00;40.00;34.20
60039;DHT22;45916;52.734;6.544;2022-07-23T10:02:27;40.00;33.50
60039;DHT22;45916;52.734;6.544;2022-07-23T10:04:54;39.40;32.50
60039;DHT22;45916;52.734;6.544;2022-07-23T10:07:22;37.70;33.60
60039;DHT22;45916;52.734;6.544;2022-07-23T10:09:50;37.60;35.80
60039;DHT22;45916;52.734;6.544;2022-07-23T10:12:18;38.20;34.10
60039;DHT22;45916;52.734;6.544;2022-07-23T10:15:04;37.20;33.80
60039;DHT22;45916;52.734;6.544;2022-07-23T10:17:31;36.80;35.60
60039;DHT22;45916;52.734;6.544;2022-07-23T10:19:57;36.20;35.50
60039;DHT22;45916;52.734;6.544;2022-07-23T10:22:30;35.20;35.80
60039;DHT22;45916;52.734;6.544;2022-07-23T10:39:08;38.60;35.30
60039;DHT22;45916;52.734;6.544;2022-07-23T10:41:41;38.80;33.70
60039;DHT22;45916;52.734;6.544;2022-07-23T10:44:17;37.90;33.90
60039;DHT22;45916;52.734;6.544;2022-07-23T10:47:13;38.00;35.10
60039;DHT22;45916;52.734;6.544;2022-07-23T10:58:01;37.70;35.50
60039;DHT22;45916;52.734;6.544;2022-07-23T11:00:29;38.10;35.90
60039;DHT22;45916;52.734;6.544;2022-07-23T11:02:57;38.40;33.20
60039;DHT22;45916;52.734;6.544;2022-07-23T11:05:26;37.50;34.40
60039;DHT22;45916;52.734;6.544;2022-07-23T11:10:33;34.60;36.60
60039;DHT22;45916;52.734;6.544;2022-07-23T11:16:04;33.60;39.30
60039;DHT22;45916;52.734;6.544;2022-07-23T11:23:57;31.60;42.20
60039;DHT22;45916;52.734;6.544;2022-07-23T11:26:50;31.20;42.40
60039;DHT22;45916;52.734;6.544;2022-07-23T11:32:02;30.20;43.60
60039;DHT22;45916;52.734;6.544;2022-07-23T11:37:01;29.50;47.90
60039;DHT22;45916;52.734;6.544;2022-07-23T11:39:29;29.30;46.70
60039;DHT22;45916;52.734;6.544;2022-07-23T11:41:56;29.40;47.50
60039;DHT22;45916;52.734;6.544;2022-07-23T11:44:34;29.50;46.70
60039;DHT22;45916;52.734;6.544;2022-07-23T11:47:09;29.50;46.50
60039;DHT22;45916;52.734;6.544;2022-07-23T11:49:35;29.30;46.60
60039;DHT22;45916;52.734;6.544;2022-07-23T11:52:14;29.20;47.70
60039;DHT22;45916;52.734;6.544;2022-07-23T11:54:53;29.00;47.00
60039;DHT22;45916;52.734;6.544;2022-07-23T11:57:20;29.20;49.10
60039;DHT22;45916;52.734;6.544;2022-07-23T11:59:52;29.30;48.90
60039;DHT22;45916;52.734;6.544;2022-07-23T12:02:20;29.20;49.10
60039;DHT22;45916;52.734;6.544;2022-07-23T12:04:49;29.30;48.90
60039;DHT22;45916;52.734;6.544;2022-07-23T12:07:38;29.20;47.80
60039;DHT22;45916;52.734;6.544;2022-07-23T12:15:20;28.40;49.40
60039;DHT22;45916;52.734;6.544;2022-07-23T12:17:49;28.20;49.40
60039;DHT22;45916;52.734;6.544;2022-07-23T12:20:18;27.90;50.80
60039;DHT22;45916;52.734;6.544;2022-07-23T12:22:46;27.60;51.30
60039;DHT22;45916;52.734;6.544;2022-07-23T12:25:18;27.50;50.20
60039;DHT22;45916;52.734;6.544;2022-07-23T12:27:45;27.40;51.30
60039;DHT22;45916;52.734;6.544;2022-07-23T12:30:29;27.20;51.50
60039;DHT22;45916;52.734;6.544;2022-07-23T12:32:57;27.00;51.90
60039;DHT22;45916;52.734;6.544;2022-07-23T12:35:34;26.90;53.40
60039;DHT22;45916;52.734;6.544;2022-07-23T12:38:02;27.00;54.10
60039;DHT22;45916;52.734;6.544;2022-07-23T12:40:31;27.00;54.10
60039;DHT22;45916;52.734;6.544;2022-07-23T12:43:03;27.00;52.30
60039;DHT22;45916;52.734;6.544;2022-07-23T12:45:51;26.90;53.30
60039;DHT22;45916;52.734;6.544;2022-07-23T12:48:28;26.70;52.90
60039;DHT22;45916;52.734;6.544;2022-07-23T12:50:56;26.60;54.00
60039;DHT22;45916;52.734;6.544;2022-07-23T12:53:30;26.60;54.90
60039;DHT22;45916;52.734;6.544;2022-07-23T12:56:16;26.60;53.40
60039;DHT22;45916;52.734;6.544;2022-07-23T12:58:46;26.60;55.30
60039;DHT22;45916;52.734;6.544;2022-07-23T13:01:22;26.60;53.60
60039;DHT22;45916;52.734;6.544;2022-07-23T13:04:01;26.30;53.50
60039;DHT22;45916;52.734;6.544;2022-07-23T13:09:16;25.60;56.20
60039;DHT22;45916;52.734;6.544;2022-07-23T13:11:43;25.50;56.70
60039;DHT22;45916;52.734;6.544;2022-07-23T13:14:11;25.50;57.10
60039;DHT22;45916;52.734;6.544;2022-07-23T13:16:37;25.60;59.10
60039;DHT22;45916;52.734;6.544;2022-07-23T13:19:02;25.60;58.50
60039;DHT22;45916;52.734;6.544;2022-07-23T13:21:28;25.60;58.90
60039;DHT22;45916;52.734;6.544;2022-07-23T13:23:55;25.60;59.10
60039;DHT22;45916;52.734;6.544;2022-07-23T13:26:21;25.70;58.40
60039;DHT22;45916;52.734;6.544;2022-07-23T13:28:47;25.60;58.40
60039;DHT22;45916;52.734;6.544;2022-07-23T13:31:13;25.70;59.10
60039;DHT22;45916;52.734;6.544;2022-07-23T13:33:39;25.80;58.80
60039;DHT22;45916;52.734;6.544;2022-07-23T13:36:06;26.10;60.60
60039;DHT22;45916;52.734;6.544;2022-07-23T13:38:32;26.20;61.50
60039;DHT22;45916;52.734;6.544;2022-07-23T13:40:58;26.20;61.60
60039;DHT22;45916;52.734;6.544;2022-07-23T13:43:25;26.00;61.10
60039;DHT22;45916;52.734;6.544;2022-07-23T13:45:52;25.90;60.40
60039;DHT22;45916;52.734;6.544;2022-07-23T13:48:18;25.60;61.80
60039;DHT22;45916;52.734;6.544;2022-07-23T13:50:46;25.50;63.20
60039;DHT22;45916;52.734;6.544;2022-07-23T13:53:15;25.50;63.00
60039;DHT22;45916;52.734;6.544;2022-07-23T13:55:41;25.60;62.40
60039;DHT22;45916;52.734;6.544;2022-07-23T13:58:08;25.70;63.30
60039;DHT22;45916;52.734;6.544;2022-07-23T14:00:41;25.70;63.90
60039;DHT22;45916;52.734;6.544;2022-07-23T14:03:08;25.60;64.20
60039;DHT22;45916;52.734;6.544;2022-07-23T14:05:33;25.50;64.20
60039;DHT22;45916;52.734;6.544;2022-07-23T14:07:59;25.50;68.40
60039;DHT22;45916;52.734;6.544;2022-07-23T14:10:25;25.40;68.30
60039;DHT22;45916;52.734;6.544;2022-07-23T14:12:52;25.40;66.90
60039;DHT22;45916;52.734;6.544;2022-07-23T14:15:23;25.40;67.20
60039;DHT22;45916;52.734;6.544;2022-07-23T14:17:49;25.50;69.70
60039;DHT22;45916;52.734;6.544;2022-07-23T14:20:15;25.50;65.90
60039;DHT22;45916;52.734;6.544;2022-07-23T14:22:41;25.50;65.30
60039;DHT22;45916;52.734;6.544;2022-07-23T14:25:08;25.50;68.70
60039;DHT22;45916;52.734;6.544;2022-07-23T14:27:34;25.60;68.10
60039;DHT22;45916;52.734;6.544;2022-07-23T14:30:00;25.70;68.50
60039;DHT22;45916;52.734;6.544;2022-07-23T14:32:26;25.60;69.50
60039;DHT22;45916;52.734;6.544;2022-07-23T14:34:52;25.60;65.40
60039;DHT22;45916;52.734;6.544;2022-07-23T14:37:18;25.50;67.30
60039;DHT22;45916;52.734;6.544;2022-07-23T14:39:44;25.50;70.60
60039;DHT22;45916;52.734;6.544;2022-07-23T14:42:11;25.40;71.10
60039;DHT22;45916;52.734;6.544;2022-07-23T14:44:37;25.40;73.60
60039;DHT22;45916;52.734;6.544;2022-07-23T14:47:04;25.40;76.90
60039;DHT22;45916;52.734;6.544;2022-07-23T14:49:31;25.40;72.10
60039;DHT22;45916;52.734;6.544;2022-07-23T14:51:57;25.20;67.10
60039;DHT22;45916;52.734;6.544;2022-07-23T14:54:24;25.10;67.30
60039;DHT22;45916;52.734;6.544;2022-07-23T14:56:55;25.00;69.20
60039;DHT22;45916;52.734;6.544;2022-07-23T14:59:21;24.90;71.30
60039;DHT22;45916;52.734;6.544;2022-07-23T15:01:47;24.70;71.60
60039;DHT22;45916;52.734;6.544;2022-07-23T15:04:13;24.60;73.70
60039;DHT22;45916;52.734;6.544;2022-07-23T15:06:38;24.50;78.10
60039;DHT22;45916;52.734;6.544;2022-07-23T15:09:04;24.50;78.10
60039;DHT22;45916;52.734;6.544;2022-07-23T15:11:30;24.50;76.30
60039;DHT22;45916;52.734;6.544;2022-07-23T15:14:03;24.50;76.70
60039;DHT22;45916;52.734;6.544;2022-07-23T15:16:28;24.50;78.30
60039;DHT22;45916;52.734;6.544;2022-07-23T15:18:54;24.40;77.50
60039;DHT22;45916;52.734;6.544;2022-07-23T15:21:20;24.30;79.30
60039;DHT22;45916;52.734;6.544;2022-07-23T15:23:46;24.10;81.60
60039;DHT22;45916;52.734;6.544;2022-07-23T15:26:14;24.00;81.50
60039;DHT22;45916;52.734;6.544;2022-07-23T15:28:41;24.00;79.40
60039;DHT22;45916;52.734;6.544;2022-07-23T15:31:07;24.10;78.90
60039;DHT22;45916;52.734;6.544;2022-07-23T15:33:33;24.10;84.20
60039;DHT22;45916;52.734;6.544;2022-07-23T15:35:58;24.10;81.70
60039;DHT22;45916;52.734;6.544;2022-07-23T15:38:26;24.20;82.40
60039;DHT22;45916;52.734;6.544;2022-07-23T15:40:53;24.30;86.60
60039;DHT22;45916;52.734;6.544;2022-07-23T15:43:19;24.40;86.60
60039;DHT22;45916;52.734;6.544;2022-07-23T15:45:45;24.50;85.20
60039;DHT22;45916;52.734;6.544;2022-07-23T15:48:12;24.60;84.10
60039;DHT22;45916;52.734;6.544;2022-07-23T15:50:38;24.80;82.20
60039;DHT22;45916;52.734;6.544;2022-07-23T15:53:03;24.90;80.90
60039;DHT22;45916;52.734;6.544;2022-07-23T15:55:29;24.90;79.50
60039;DHT22;45916;52.734;6.544;2022-07-23T15:57:55;25.00;78.90
60039;DHT22;45916;52.734;6.544;2022-07-23T16:00:20;25.00;77.90
60039;DHT22;45916;52.734;6.544;2022-07-23T16:02:46;25.00;78.40
60039;DHT22;45916;52.734;6.544;2022-07-23T16:05:12;25.00;79.10
60039;DHT22;45916;52.734;6.544;2022-07-23T16:07:37;25.00;79.90
60039;DHT22;45916;52.734;6.544;2022-07-23T16:10:07;24.90;78.80
60039;DHT22;45916;52.734;6.544;2022-07-23T16:12:33;24.90;77.80
60039;DHT22;45916;52.734;6.544;2022-07-23T16:14:59;24.80;78.00
60039;DHT22;45916;52.734;6.544;2022-07-23T16:17:25;24.70;81.40
60039;DHT22;45916;52.734;6.544;2022-07-23T16:19:50;24.60;79.50
60039;DHT22;45916;52.734;6.544;2022-07-23T16:22:16;24.40;81.40
60039;DHT22;45916;52.734;6.544;2022-07-23T16:24:43;24.30;82.50
60039;DHT22;45916;52.734;6.544;2022-07-23T16:27:09;24.20;82.10
60039;DHT22;45916;52.734;6.544;2022-07-23T16:29:35;24.10;81.20